YOW weather

Ottawa Macdonald-Cartier International Airport
Ottawa, Ontario, Canada

Public forecast

Using degrees Celsius for public forecast. Weather courtesy of forecast.io.

Current aviation weather report (METAR) for Ottawa Macdonald-Cartier International Airport

Retrieved 2020/06/02 18:00 UTC (36 minutes ago):

CYOW 021800Z 16005KT 15SM -RA OVC061 15/12 A2986 RMK SC8 SLP113 DENSITY ALT 600FT

Aviation forecast (TAF) for Ottawa Macdonald-Cartier International Airport

Retrieved 2020/06/02 18:42 UTC (0 seconds ago):

TAF TAF CYOW 021738Z 0218/0318 18006KT P6SM SCT030 OVC070 TEMPO 0218/0220 P6SM -SHRA BKN030 OVC070 FM022000 18008KT P6SM BKN030 OVC050 FM030000 16006KT P6SM SCT015 OVC040 TEMPO 0300/0306 P6SM -RA BKN015 OVC040 FM030600 07006KT P6SM SCT008 OVC020 TEMPO 0306/0308 4SM -RA -DZ BR BKN008 OVC020 FM030800 07005KT 2SM -DZ -RA BR BKN004 OVC010 PROB30 0308/0314 BKN003 OVC008 FM031400 03005KT 5SM -DZ -RA BR OVC008 FM031600 VRB03KT P6SM -DZ -RA OVC015 RMK NXT FCST BY 022100Z